createdAt,value
2018-12-22T00:02:21.593Z,8.73
2018-12-22T00:04:49.564Z,7.72
2018-12-22T00:07:17.562Z,8.18
2018-12-22T00:09:45.312Z,7.15
2018-12-22T00:12:14.030Z,7.43
2018-12-22T00:14:42.274Z,8.20
2018-12-22T00:17:10.310Z,9.13
2018-12-22T00:19:38.058Z,7.30
2018-12-22T00:22:05.814Z,8.25
2018-12-22T00:24:33.824Z,7.90
2018-12-22T00:27:01.517Z,7.97
2018-12-22T00:29:29.615Z,8.85
2018-12-22T00:31:57.603Z,7.95
2018-12-22T00:34:25.017Z,7.50
2018-12-22T00:36:53.549Z,9.65
2018-12-22T00:39:22.083Z,8.80
2018-12-22T00:41:50.008Z,7.95
2018-12-22T00:44:18.048Z,7.07
2018-12-22T00:46:46.076Z,8.18
2018-12-22T00:49:14.025Z,8.57
2018-12-22T00:51:42.824Z,7.32
2018-12-22T00:54:11.145Z,6.90
2018-12-22T00:56:38.855Z,7.75
2018-12-22T00:59:06.891Z,7.72
2018-12-22T01:01:35.387Z,7.47
2018-12-22T01:04:03.388Z,7.30
2018-12-22T01:06:31.319Z,8.00
2018-12-22T01:08:59.302Z,7.28
2018-12-22T01:11:27.282Z,7.32
2018-12-22T01:13:55.012Z,7.90
2018-12-22T01:16:23.478Z,8.68
2018-12-22T01:18:51.521Z,7.32
2018-12-22T01:21:19.216Z,7.18
2018-12-22T01:23:47.291Z,7.80
2018-12-22T01:26:15.137Z,6.70
2018-12-22T01:28:42.850Z,6.68
2018-12-22T01:31:10.912Z,6.30
2018-12-22T01:33:38.663Z,6.53
2018-12-22T01:36:06.672Z,6.62
2018-12-22T01:38:34.617Z,6.37
2018-12-22T01:41:02.592Z,6.47
2018-12-22T01:43:30.603Z,6.43
2018-12-22T01:45:58.586Z,6.03
2018-12-22T01:48:26.578Z,6.12
2018-12-22T01:50:54.761Z,7.68
2018-12-22T01:53:22.722Z,5.85
2018-12-22T01:55:50.711Z,8.00
2018-12-22T01:58:18.803Z,5.55
2018-12-22T02:00:46.478Z,5.28
2018-12-22T02:03:14.890Z,6.62
2018-12-22T02:05:43.019Z,5.55
2018-12-22T02:08:10.737Z,6.00
2018-12-22T02:10:38.734Z,6.85
2018-12-22T02:13:07.158Z,7.05
2018-12-22T02:15:34.869Z,5.65
2018-12-22T02:18:02.609Z,7.05
2018-12-22T02:20:31.185Z,7.45
2018-12-22T02:22:59.821Z,7.55
2018-12-22T02:25:27.520Z,6.55
2018-12-22T02:27:55.533Z,6.30
2018-12-22T02:30:23.250Z,7.15
2018-12-22T02:32:51.368Z,7.72
2018-12-22T02:35:19.101Z,9.38
2018-12-22T02:37:46.845Z,10.07
2018-12-22T02:40:14.638Z,9.82
2018-12-22T02:42:42.560Z,7.85
2018-12-22T02:45:10.281Z,7.40
2018-12-22T02:47:37.976Z,6.80
2018-12-22T02:50:06.830Z,7.87
2018-12-22T02:52:34.852Z,7.22
2018-12-22T02:55:04.230Z,8.70
2018-12-22T02:57:33.300Z,10.83
2018-12-22T03:00:01.270Z,7.37
2018-12-22T03:02:29.234Z,7.65
2018-12-22T03:04:57.610Z,8.40
2018-12-22T03:07:25.679Z,8.00
2018-12-22T03:09:53.772Z,5.70
2018-12-22T03:12:22.230Z,7.93
2018-12-22T03:14:49.935Z,7.40
2018-12-22T03:17:17.926Z,6.90
2018-12-22T03:19:46.242Z,7.87
2018-12-22T03:22:14.243Z,6.72
2018-12-22T03:24:42.148Z,5.50
2018-12-22T03:27:11.105Z,5.47
2018-12-22T03:29:40.065Z,6.50
2018-12-22T03:32:07.893Z,6.18
2018-12-22T03:34:36.394Z,6.37
2018-12-22T03:37:04.376Z,7.00
2018-12-22T03:39:32.946Z,6.70
2018-12-22T03:42:00.956Z,6.80
2018-12-22T03:44:28.647Z,7.05
2018-12-22T03:46:56.346Z,6.70
2018-12-22T03:49:24.337Z,6.28
2018-12-22T03:51:52.322Z,7.18
2018-12-22T03:54:20.870Z,7.45
2018-12-22T03:56:48.902Z,7.85
2018-12-22T03:59:24.490Z,7.62
2018-12-22T04:01:44.592Z,6.93
2018-12-22T04:04:12.322Z,6.25
2018-12-22T04:06:40.396Z,5.37
2018-12-22T04:09:09.272Z,4.87
2018-12-22T04:11:36.577Z,5.32
2018-12-22T04:14:04.537Z,5.90
2018-12-22T04:16:32.536Z,5.10
2018-12-22T04:19:00.620Z,5.30
2018-12-22T04:21:29.130Z,4.10
2018-12-22T04:23:57.070Z,3.85
2018-12-22T04:26:25.275Z,4.22
2018-12-22T04:28:53.249Z,4.35
2018-12-22T04:31:21.222Z,4.85
2018-12-22T04:33:49.547Z,4.10
2018-12-22T04:36:17.484Z,2.67
2018-12-22T04:38:45.186Z,3.67
2018-12-22T04:41:12.924Z,3.10
2018-12-22T04:43:40.631Z,3.05
2018-12-22T04:46:08.345Z,2.95
2018-12-22T04:48:36.631Z,3.37
2018-12-22T04:51:04.592Z,3.17
2018-12-22T04:53:32.584Z,3.72
2018-12-22T04:56:00.771Z,3.60
2018-12-22T04:58:29.406Z,3.00
2018-12-22T05:00:57.915Z,2.78
2018-12-22T05:03:25.930Z,2.87
2018-12-22T05:05:53.933Z,2.75
2018-12-22T05:08:21.879Z,3.95
2018-12-22T05:10:50.397Z,3.28
2018-12-22T05:13:18.395Z,4.12
2018-12-22T05:15:46.457Z,2.62
2018-12-22T05:18:14.805Z,3.30
2018-12-22T05:20:42.764Z,3.05
2018-12-22T05:23:10.531Z,2.53
2018-12-22T05:25:38.516Z,2.80
2018-12-22T05:28:06.498Z,3.45
2018-12-22T05:30:34.203Z,2.53
2018-12-22T05:33:02.379Z,4.55
2018-12-22T05:35:30.345Z,2.70
2018-12-22T05:37:58.275Z,2.25
2018-12-22T05:40:26.293Z,2.72
2018-12-22T05:42:54.101Z,2.30
2018-12-22T05:45:22.603Z,2.42
2018-12-22T05:47:50.664Z,1.98
2018-12-22T05:50:20.446Z,2.40
2018-12-22T05:52:48.595Z,2.33
2018-12-22T05:55:17.502Z,2.42
2018-12-22T05:57:45.584Z,2.05
2018-12-22T06:00:13.552Z,1.77
2018-12-22T06:02:41.780Z,1.98
2018-12-22T06:05:10.703Z,3.37
2018-12-22T06:07:38.414Z,2.00
2018-12-22T06:10:07.069Z,2.00
2018-12-22T06:12:35.259Z,2.60
2018-12-22T06:15:03.816Z,2.10
2018-12-22T06:17:31.704Z,2.05
2018-12-22T06:19:59.682Z,2.03
2018-12-22T06:22:27.673Z,2.05
2018-12-22T06:24:55.692Z,1.73
2018-12-22T06:27:23.673Z,2.15
2018-12-22T06:29:51.675Z,1.95
2018-12-22T06:32:19.928Z,1.62
2018-12-22T06:34:47.864Z,2.83
2018-12-22T06:37:15.569Z,1.70
2018-12-22T06:39:43.534Z,2.00
2018-12-22T06:42:11.240Z,1.67
2018-12-22T06:44:39.179Z,1.70
2018-12-22T06:47:06.792Z,1.45
2018-12-22T06:49:34.539Z,1.50
2018-12-22T06:52:02.502Z,1.62
2018-12-22T06:54:30.837Z,1.80
2018-12-22T06:56:58.836Z,1.42
2018-12-22T06:59:26.798Z,1.50
2018-12-22T07:01:54.933Z,2.00
2018-12-22T07:04:22.678Z,1.83
2018-12-22T07:06:50.653Z,1.85
2018-12-22T07:09:18.466Z,1.83
2018-12-22T07:11:46.817Z,6.95
2018-12-22T07:14:14.793Z,2.53
2018-12-22T07:16:43.053Z,2.33
2018-12-22T07:19:10.779Z,3.17
2018-12-22T07:21:38.746Z,2.30
2018-12-22T07:24:06.726Z,2.20
2018-12-22T07:26:34.717Z,2.03
2018-12-22T07:29:02.714Z,2.45
2018-12-22T07:31:30.715Z,1.67
2018-12-22T07:33:58.679Z,2.03
2018-12-22T07:36:27.180Z,2.55
2018-12-22T07:38:54.907Z,2.65
2018-12-22T07:41:22.862Z,2.15
2018-12-22T07:43:50.818Z,2.15
2018-12-22T07:46:18.549Z,2.35
2018-12-22T07:48:46.564Z,3.42
2018-12-22T07:51:14.017Z,2.55
2018-12-22T07:53:42.173Z,1.95
2018-12-22T07:56:10.163Z,2.22
2018-12-22T07:58:37.840Z,1.60
2018-12-22T08:01:05.837Z,1.67
2018-12-22T08:03:33.796Z,2.20
2018-12-22T08:06:01.799Z,1.80
2018-12-22T08:08:29.544Z,2.30
2018-12-22T08:10:57.535Z,2.20
2018-12-22T08:13:25.597Z,2.00
2018-12-22T08:15:53.799Z,1.90
2018-12-22T08:18:21.806Z,1.83
2018-12-22T08:20:49.796Z,2.17
2018-12-22T08:23:18.205Z,1.52
2018-12-22T08:25:46.223Z,2.03
2018-12-22T08:28:14.187Z,1.95
2018-12-22T08:30:43.660Z,1.98
2018-12-22T08:33:10.063Z,2.10
2018-12-22T08:35:38.081Z,2.15
2018-12-22T08:38:06.037Z,2.05
2018-12-22T08:40:34.020Z,2.10
2018-12-22T08:43:01.727Z,2.55
2018-12-22T08:45:30.032Z,2.58
2018-12-22T08:47:57.766Z,1.90
2018-12-22T08:50:25.711Z,2.30
2018-12-22T08:52:53.543Z,1.92
2018-12-22T08:55:22.062Z,3.00
2018-12-22T08:57:50.032Z,2.92
2018-12-22T09:00:18.073Z,2.08
2018-12-22T09:02:47.805Z,2.50
2018-12-22T09:05:14.351Z,2.53
2018-12-22T09:07:42.347Z,2.20
2018-12-22T09:10:10.315Z,2.62
2018-12-22T09:12:38.322Z,2.42
2018-12-22T09:15:07.016Z,2.03
2018-12-22T09:17:34.718Z,2.53
2018-12-22T09:20:03.207Z,2.00
2018-12-22T09:22:31.711Z,2.37
2018-12-22T09:24:59.501Z,2.35
2018-12-22T09:27:27.535Z,2.50
2018-12-22T09:29:55.927Z,2.28
2018-12-22T09:32:23.899Z,1.90
2018-12-22T09:34:51.315Z,2.83
2018-12-22T09:37:19.315Z,2.58
2018-12-22T09:39:47.271Z,2.35
2018-12-22T09:42:15.209Z,2.35
2018-12-22T09:44:42.644Z,2.10
2018-12-22T09:47:10.581Z,2.28
2018-12-22T09:49:38.546Z,2.10
2018-12-22T09:52:06.776Z,2.58
2018-12-22T09:54:34.499Z,2.42
2018-12-22T09:57:02.479Z,2.08
2018-12-22T09:59:30.509Z,2.17
2018-12-22T10:01:58.535Z,2.40
2018-12-22T10:04:26.502Z,2.45
2018-12-22T10:06:54.961Z,2.50
2018-12-22T10:09:22.645Z,2.00
2018-12-22T10:11:50.636Z,2.47
2018-12-22T10:14:18.653Z,2.70
2018-12-22T10:16:47.100Z,2.22
2018-12-22T10:19:15.024Z,2.50
2018-12-22T10:21:43.002Z,2.45
2018-12-22T10:24:10.988Z,1.92
2018-12-22T10:26:38.918Z,2.30
2018-12-22T10:29:06.916Z,1.92
2018-12-22T10:31:34.600Z,3.12
2018-12-22T10:34:02.510Z,2.20
2018-12-22T10:36:30.700Z,2.60
2018-12-22T10:38:58.671Z,1.80
2018-12-22T10:41:26.625Z,1.87
2018-12-22T10:43:54.659Z,2.62
2018-12-22T10:46:22.625Z,2.05
2018-12-22T10:48:50.354Z,2.47
2018-12-22T10:51:24.186Z,2.80
2018-12-22T10:53:46.754Z,2.87
2018-12-22T10:56:14.736Z,3.12
2018-12-22T10:58:42.760Z,2.65
2018-12-22T11:01:10.779Z,2.70
2018-12-22T11:03:38.698Z,2.35
2018-12-22T11:06:06.863Z,2.95
2018-12-22T11:08:35.015Z,3.10
2018-12-22T11:11:02.690Z,3.12
2018-12-22T11:13:31.056Z,2.90
2018-12-22T11:15:59.121Z,3.28
2018-12-22T11:18:27.717Z,2.83
2018-12-22T11:20:56.050Z,2.28
2018-12-22T11:23:23.736Z,2.47
2018-12-22T11:25:51.414Z,3.03
2018-12-22T11:28:19.563Z,2.33
2018-12-22T11:30:47.559Z,2.37
2018-12-22T11:33:15.481Z,2.22
2018-12-22T11:35:43.626Z,2.70
2018-12-22T11:38:11.830Z,2.58
2018-12-22T11:40:39.857Z,1.80
2018-12-22T11:43:08.270Z,2.03
2018-12-22T11:45:36.242Z,2.42
2018-12-22T11:48:14.149Z,1.98
2018-12-22T11:50:42.164Z,2.37
2018-12-22T11:53:10.136Z,2.05
2018-12-22T11:55:38.182Z,2.65
2018-12-22T11:58:06.175Z,1.80
2018-12-22T12:00:34.198Z,2.00
2018-12-22T12:03:02.783Z,1.87
2018-12-22T12:05:30.785Z,1.85
2018-12-22T12:07:59.895Z,2.25
2018-12-22T12:10:27.633Z,2.58
2018-12-22T12:12:55.320Z,1.55
2018-12-22T12:15:25.022Z,2.53
2018-12-22T12:18:14.995Z,2.20
2018-12-22T12:20:43.249Z,2.12
2018-12-22T12:23:10.912Z,1.92
2018-12-22T12:25:39.012Z,1.40
2018-12-22T12:28:06.985Z,2.35
2018-12-22T12:30:36.010Z,2.40
2018-12-22T12:33:04.961Z,1.67
2018-12-22T12:35:32.734Z,2.75
2018-12-22T12:38:00.730Z,1.67
2018-12-22T12:40:28.974Z,2.75
2018-12-22T12:42:56.987Z,2.25
2018-12-22T12:45:24.993Z,2.12
2018-12-22T12:47:52.972Z,2.10
2018-12-22T12:50:22.457Z,1.92
2018-12-22T12:52:50.449Z,2.28
2018-12-22T12:55:18.531Z,2.25
2018-12-22T12:57:46.477Z,2.00
2018-12-22T13:00:15.062Z,3.67
2018-12-22T13:02:43.080Z,3.65
2018-12-22T13:05:11.213Z,2.25
2018-12-22T13:07:39.562Z,2.15
2018-12-22T13:10:09.110Z,2.00
2018-12-22T13:12:49.949Z,2.37
2018-12-22T13:15:18.125Z,2.55
2018-12-22T13:17:45.911Z,2.30
2018-12-22T13:20:13.671Z,2.20
2018-12-22T13:22:41.886Z,2.50
2018-12-22T13:25:09.863Z,2.78
2018-12-22T13:27:37.592Z,1.90
2018-12-22T13:30:06.307Z,2.03
2018-12-22T13:32:33.991Z,2.70
2018-12-22T13:35:01.807Z,2.67
2018-12-22T13:37:29.823Z,2.55
2018-12-22T13:39:57.854Z,2.22
2018-12-22T13:42:25.887Z,2.42
2018-12-22T13:44:53.862Z,2.45
2018-12-22T13:47:21.959Z,2.12
2018-12-22T13:49:50.195Z,2.50
2018-12-22T13:52:17.802Z,2.33
2018-12-22T13:54:45.521Z,2.03
2018-12-22T13:57:13.661Z,2.10
2018-12-22T13:59:41.984Z,2.62
2018-12-22T14:02:18.018Z,2.15
2018-12-22T14:04:38.752Z,2.47
2018-12-22T14:07:08.071Z,3.00
2018-12-22T14:09:36.069Z,1.85
2018-12-22T14:12:03.762Z,2.50
2018-12-22T14:14:35.971Z,2.97
2018-12-22T14:17:11.832Z,2.47
2018-12-22T14:19:41.514Z,2.65
2018-12-22T14:22:09.562Z,2.10
2018-12-22T14:24:43.078Z,1.83
2018-12-22T14:27:09.639Z,2.22
2018-12-22T14:29:37.680Z,2.25
2018-12-22T14:32:05.758Z,2.10
2018-12-22T14:34:35.768Z,2.33
2018-12-22T14:37:03.575Z,2.53
2018-12-22T14:39:31.426Z,2.30
2018-12-22T14:41:59.446Z,2.60
2018-12-22T14:44:27.536Z,2.67
2018-12-22T14:46:56.120Z,2.47
2018-12-22T14:49:24.005Z,2.08
2018-12-22T14:51:52.176Z,2.37
2018-12-22T14:54:20.248Z,2.03
2018-12-22T14:56:48.893Z,2.62
2018-12-22T14:59:20.709Z,2.90
2018-12-22T15:01:50.826Z,2.10
2018-12-22T15:04:18.823Z,2.78
2018-12-22T15:06:46.847Z,2.50
2018-12-22T15:09:14.927Z,2.72
2018-12-22T15:11:42.889Z,2.40
2018-12-22T15:14:10.879Z,3.28
2018-12-22T15:16:38.967Z,2.10
2018-12-22T15:19:07.015Z,2.67
2018-12-22T15:21:34.447Z,2.65
2018-12-22T15:24:02.549Z,2.60
2018-12-22T15:26:31.414Z,3.35
2018-12-22T15:28:59.711Z,2.72
2018-12-22T15:31:27.485Z,2.60
2018-12-22T15:33:55.906Z,2.47
2018-12-22T15:36:23.894Z,2.58
2018-12-22T15:38:51.700Z,2.85
2018-12-22T15:41:19.973Z,2.80
2018-12-22T15:43:47.910Z,3.05
2018-12-22T15:46:16.031Z,3.22
2018-12-22T15:48:43.723Z,2.85
2018-12-22T15:51:11.674Z,3.00
2018-12-22T15:53:39.606Z,3.37
2018-12-22T15:56:07.953Z,3.15
2018-12-22T15:58:35.619Z,3.10
2018-12-22T16:01:03.611Z,3.15
2018-12-22T16:03:31.700Z,3.60
2018-12-22T16:05:59.635Z,3.37
2018-12-22T16:08:27.755Z,2.65
2018-12-22T16:10:55.586Z,2.47
2018-12-22T16:13:23.652Z,3.50
2018-12-22T16:15:52.167Z,3.25
2018-12-22T16:18:20.199Z,2.83
2018-12-22T16:20:48.387Z,3.42
2018-12-22T16:23:16.347Z,3.80
2018-12-22T16:25:44.115Z,4.00
2018-12-22T16:28:16.919Z,3.22
2018-12-22T16:30:46.722Z,4.47
2018-12-22T16:33:14.760Z,3.65
2018-12-22T16:35:42.853Z,3.67
2018-12-22T16:38:10.721Z,3.08
2018-12-22T16:40:39.290Z,4.12
2018-12-22T16:43:08.921Z,3.33
2018-12-22T16:45:37.279Z,3.47
2018-12-22T16:48:05.250Z,3.75
2018-12-22T16:50:35.121Z,4.57
2018-12-22T16:53:03.245Z,4.62
2018-12-22T16:55:31.520Z,4.20
2018-12-22T16:58:01.941Z,4.85
2018-12-22T17:00:30.999Z,5.10
2018-12-22T17:03:00.457Z,4.93
2018-12-22T17:05:28.341Z,5.20
2018-12-22T17:07:56.309Z,5.20
2018-12-22T17:10:25.042Z,4.43
2018-12-22T17:12:53.145Z,4.62
2018-12-22T17:15:23.798Z,5.32
2018-12-22T17:17:49.708Z,5.68
2018-12-22T17:20:17.779Z,5.60
2018-12-22T17:23:00.714Z,5.97
2018-12-22T17:25:32.530Z,5.87
2018-12-22T17:28:00.294Z,6.30
2018-12-22T17:30:29.131Z,5.70
2018-12-22T17:32:56.821Z,4.05
2018-12-22T17:35:24.947Z,4.40
2018-12-22T17:37:53.963Z,5.53
2018-12-22T17:40:21.800Z,5.35
2018-12-22T17:42:50.365Z,4.68
2018-12-22T17:45:18.335Z,5.53
2018-12-22T17:47:46.288Z,4.40
2018-12-22T17:50:14.399Z,5.15
2018-12-22T17:52:42.464Z,4.40
2018-12-22T17:55:10.638Z,4.50
2018-12-22T17:57:38.622Z,5.15
2018-12-22T18:00:07.442Z,4.90
2018-12-22T18:02:35.343Z,5.10
2018-12-22T18:05:03.346Z,3.95
2018-12-22T18:07:31.475Z,3.95
2018-12-22T18:09:59.558Z,3.90
2018-12-22T18:12:27.630Z,4.22
2018-12-22T18:14:55.606Z,4.65
2018-12-22T18:17:23.487Z,4.55
2018-12-22T18:19:51.338Z,4.18
2018-12-22T18:22:19.826Z,5.70
2018-12-22T18:24:47.911Z,3.90
2018-12-22T18:27:15.968Z,4.57
2018-12-22T18:29:43.837Z,4.45
2018-12-22T18:32:12.855Z,4.37
2018-12-22T18:34:40.827Z,4.57
2018-12-22T18:37:08.913Z,4.00
2018-12-22T18:39:37.035Z,4.87
2018-12-22T18:42:05.201Z,4.20
2018-12-22T18:44:32.993Z,3.67
2018-12-22T18:47:01.171Z,3.62
2018-12-22T18:49:29.013Z,5.55
2018-12-22T18:51:57.290Z,4.35
2018-12-22T18:54:24.791Z,3.95
2018-12-22T18:56:52.897Z,5.03
2018-12-22T18:59:22.253Z,5.18
2018-12-22T19:01:49.943Z,5.60
2018-12-22T19:04:18.094Z,5.53
2018-12-22T19:06:46.753Z,5.93
2018-12-22T19:09:18.017Z,4.72
2018-12-22T19:11:46.196Z,3.90
2018-12-22T19:14:14.027Z,4.75
2018-12-22T19:16:42.058Z,3.70
2018-12-22T19:19:10.054Z,4.00
2018-12-22T19:21:38.419Z,4.45
2018-12-22T19:24:06.613Z,3.85
2018-12-22T19:26:34.598Z,4.12
2018-12-22T19:29:02.614Z,4.20
2018-12-22T19:31:30.735Z,4.95
2018-12-22T19:33:59.409Z,4.75
2018-12-22T19:36:27.927Z,4.45
2018-12-22T19:38:55.975Z,4.80
2018-12-22T19:41:23.836Z,3.30
2018-12-22T19:43:52.408Z,2.50
2018-12-22T19:46:20.439Z,2.08
2018-12-22T19:48:48.261Z,2.40
2018-12-22T19:51:16.328Z,2.72
2018-12-22T19:53:44.414Z,2.22
2018-12-22T19:56:12.263Z,2.60
2018-12-22T19:58:41.021Z,3.20
2018-12-22T20:01:08.731Z,3.53
2018-12-22T20:03:36.716Z,3.60
2018-12-22T20:06:04.778Z,3.67
2018-12-22T20:08:32.818Z,3.67
2018-12-22T20:11:00.545Z,3.50
2018-12-22T20:13:28.553Z,3.37
2018-12-22T20:15:56.511Z,4.45
2018-12-22T20:18:24.522Z,4.10
2018-12-22T20:20:52.707Z,4.37
2018-12-22T20:23:20.652Z,4.80
2018-12-22T20:25:48.692Z,4.60
2018-12-22T20:28:16.796Z,4.82
2018-12-22T20:30:44.845Z,4.95
2018-12-22T20:33:12.271Z,4.57
2018-12-22T20:35:40.330Z,4.82
2018-12-22T20:38:08.449Z,5.65
2018-12-22T20:40:36.442Z,4.87
2018-12-22T20:43:04.620Z,6.87
2018-12-22T20:45:32.671Z,5.75
2018-12-22T20:48:00.127Z,5.87
2018-12-22T20:50:28.172Z,5.82
2018-12-22T20:52:56.274Z,5.90
2018-12-22T20:55:23.992Z,5.87
2018-12-22T20:57:52.122Z,4.87
2018-12-22T21:00:19.879Z,4.37
2018-12-22T21:02:47.961Z,4.43
2018-12-22T21:05:16.213Z,4.78
2018-12-22T21:07:44.291Z,6.32
2018-12-22T21:10:12.342Z,7.85
2018-12-22T21:12:40.461Z,6.40
2018-12-22T21:15:08.493Z,5.00
2018-12-22T21:17:36.489Z,4.75
2018-12-22T21:20:05.071Z,4.47
2018-12-22T21:22:33.144Z,4.78
2018-12-22T21:25:01.012Z,4.35
2018-12-22T21:27:28.988Z,4.53
2018-12-22T21:29:57.000Z,4.40
2018-12-22T21:32:24.992Z,4.57
2018-12-22T21:34:53.429Z,5.68
2018-12-22T21:37:21.341Z,6.60
2018-12-22T21:39:49.411Z,5.60
2018-12-22T21:42:17.592Z,5.47
2018-12-22T21:44:45.659Z,4.82
2018-12-22T21:47:13.740Z,5.62
2018-12-22T21:49:43.211Z,5.55
2018-12-22T21:52:11.175Z,5.82
2018-12-22T21:54:39.307Z,5.55
2018-12-22T21:57:07.520Z,4.25
2018-12-22T21:59:35.491Z,5.10
2018-12-22T22:02:03.507Z,3.65
2018-12-22T22:04:36.997Z,4.00
2018-12-22T22:06:59.845Z,4.80
2018-12-22T22:09:27.915Z,3.80
2018-12-22T22:11:56.126Z,3.85
2018-12-22T22:14:23.746Z,3.58
2018-12-22T22:16:51.770Z,4.07
2018-12-22T22:19:20.782Z,5.28
2018-12-22T22:21:48.906Z,4.70
2018-12-22T22:24:16.964Z,4.40
2018-12-22T22:26:45.144Z,3.90
2018-12-22T22:29:12.915Z,4.70
2018-12-22T22:31:41.451Z,4.00
2018-12-22T22:34:09.856Z,4.57
2018-12-22T22:36:38.556Z,4.28
2018-12-22T22:39:06.729Z,4.72
2018-12-22T22:41:34.578Z,4.30
2018-12-22T22:44:02.651Z,3.90
2018-12-22T22:46:30.731Z,3.10
2018-12-22T22:48:58.446Z,3.72
2018-12-22T22:51:26.553Z,3.72
2018-12-22T22:53:54.427Z,3.35
2018-12-22T22:56:22.614Z,4.07
2018-12-22T22:58:50.654Z,4.25
2018-12-22T23:01:18.536Z,5.53
2018-12-22T23:03:46.659Z,5.45
2018-12-22T23:06:14.501Z,5.18
2018-12-22T23:08:42.489Z,4.60
2018-12-22T23:11:10.326Z,4.28
2018-12-22T23:13:38.411Z,4.05
2018-12-22T23:16:06.459Z,3.65
2018-12-22T23:18:34.710Z,3.33
2018-12-22T23:21:02.524Z,3.75
2018-12-22T23:23:30.681Z,4.05
2018-12-22T23:25:58.965Z,4.28
2018-12-22T23:28:27.021Z,4.80
2018-12-22T23:30:55.082Z,4.82
2018-12-22T23:33:23.193Z,3.83
2018-12-22T23:35:50.870Z,4.62
2018-12-22T23:38:19.019Z,2.97
2018-12-22T23:40:47.089Z,3.42
2018-12-22T23:43:15.471Z,3.00
2018-12-22T23:45:43.499Z,3.80
2018-12-22T23:48:11.951Z,3.15
2018-12-22T23:50:40.095Z,3.15
2018-12-22T23:53:08.155Z,3.40
2018-12-22T23:55:36.527Z,3.20
2018-12-22T23:58:04.503Z,3.35
